Time;durP1;ratioP1;P1;durP2;ratioP2;P2;SDS_P1;SDS_P2;PMS_P1;PMS_P2;Temp;Humidity;BMP_temperature;BMP_pressure;BME280_temperature;BME280_humidity;BME280_pressure;Samples;Min_cycle;Max_cycle;Signal;HPM_P1;HPM_P2
2021/10/30 00:01:13;;;;;;;;;;;11.20;99.90;;;;;;5035087;28;19905;-78
2021/10/30 00:03:39;;;;;;;;;;;11.30;99.90;;;;;;5036224;28;19912;-78
2021/10/30 00:06:04;;;;;;;;;;;11.30;99.90;;;;;;5036275;28;19905;-79
2021/10/30 00:08:30;;;;;;;;;;;11.30;99.90;;;;;;5034926;28;19905;-78
2021/10/30 00:10:57;;;;;;;;;;;11.30;99.90;;;;;;5034448;28;19917;-76
2021/10/30 00:13:23;;;;;;;;;;;11.30;99.90;;;;;;5036118;28;19912;-77
2021/10/30 00:15:49;;;;;;;;;;;11.30;99.90;;;;;;5036264;28;19909;-78
2021/10/30 00:18:14;;;;;;;;;;;11.30;99.90;;;;;;5036441;28;19940;-77
2021/10/30 00:20:40;;;;;;;;;;;11.40;99.90;;;;;;5036015;28;19905;-78
2021/10/30 00:23:05;;;;;;;;;;;11.30;99.90;;;;;;5036141;28;19964;-77
2021/10/30 00:25:31;;;;;;;;;;;11.20;99.90;;;;;;5034600;28;19911;-78
2021/10/30 00:27:56;;;;;;;;;;;11.20;99.90;;;;;;5034828;28;19909;-78
2021/10/30 00:30:22;;;;;;;;;;;11.20;99.90;;;;;;5036184;28;19905;-78
2021/10/30 00:32:48;;;;;;;;;;;11.20;99.90;;;;;;5035748;28;19995;-78
2021/10/30 00:35:14;;;;;;;;;;;11.10;99.90;;;;;;5034431;28;19927;-77
2021/10/30 00:37:40;;;;;;;;;;;11.00;99.90;;;;;;5035768;28;19913;-78
2021/10/30 00:40:06;;;;;;;;;;;11.00;99.90;;;;;;5035561;28;20369;-78
2021/10/30 00:42:32;;;;;;;;;;;11.10;99.90;;;;;;5034273;28;20283;-78
2021/10/30 00:44:57;;;;;;;;;;;11.20;99.90;;;;;;5035892;28;19944;-77
2021/10/30 00:47:23;;;;;;;;;;;11.20;99.90;;;;;;5035809;28;19928;-76
2021/10/30 00:49:49;;;;;;;;;;;11.30;99.90;;;;;;5035455;28;19905;-77
2021/10/30 00:52:14;;;;;;;;;;;11.30;99.90;;;;;;5035494;28;19904;-77
2021/10/30 00:54:41;;;;;;;;;;;11.30;99.90;;;;;;5034089;28;19951;-78
2021/10/30 00:57:07;;;;;;;;;;;11.30;99.90;;;;;;5035474;28;19909;-77
2021/10/30 00:59:32;;;;;;;;;;;11.50;99.90;;;;;;5035591;28;19909;-77
2021/10/30 01:01:58;;;;;;;;;;;11.60;99.90;;;;;;5035222;28;19928;-78
2021/10/30 01:04:24;;;;;;;;;;;11.60;99.90;;;;;;5033899;28;20330;-77
2021/10/30 01:06:51;;;;;;;;;;;11.60;99.90;;;;;;5035102;28;19928;-77
2021/10/30 01:09:18;;;;;;;;;;;11.60;99.90;;;;;;5032948;28;19913;-79
2021/10/30 01:11:43;;;;;;;;;;;11.60;99.90;;;;;;5034993;28;20384;-78
2021/10/30 01:14:09;;;;;;;;;;;11.70;99.90;;;;;;5035127;28;19905;-78
2021/10/30 01:16:35;;;;;;;;;;;11.80;99.90;;;;;;5034902;28;19944;-78
2021/10/30 01:19:00;;;;;;;;;;;11.90;99.90;;;;;;5034855;28;19905;-77
2021/10/30 01:21:30;;;;;;;;;;;12.10;99.90;;;;;;5034820;28;20266;-76
2021/10/30 01:23:56;;;;;;;;;;;12.10;99.90;;;;;;5033495;28;19947;-78
2021/10/30 01:26:22;;;;;;;;;;;12.20;99.90;;;;;;5034776;28;19905;-78
2021/10/30 01:28:48;;;;;;;;;;;12.40;99.90;;;;;;5034705;28;20321;-76
2021/10/30 01:31:15;;;;;;;;;;;12.40;99.90;;;;;;5034709;28;19908;-78
2021/10/30 01:33:42;;;;;;;;;;;12.50;99.90;;;;;;5034628;28;19928;-78
2021/10/30 01:36:12;;;;;;;;;;;12.70;99.90;;;;;;5033212;28;19960;-77
2021/10/30 01:38:38;;;;;;;;;;;12.70;99.90;;;;;;5034616;28;20377;-77
2021/10/30 01:41:03;;;;;;;;;;;12.80;99.90;;;;;;5034442;28;19912;-78
2021/10/30 01:43:29;;;;;;;;;;;12.80;99.90;;;;;;5034412;28;20413;-77
2021/10/30 01:45:54;;;;;;;;;;;12.80;99.90;;;;;;5034413;28;19905;-78
2021/10/30 01:48:27;;;;;;;;;;;12.80;99.90;;;;;;5034511;28;19912;-77
2021/10/30 01:50:53;;;;;;;;;;;12.90;99.90;;;;;;5034336;28;19950;-78
2021/10/30 01:53:18;;;;;;;;;;;12.90;99.90;;;;;;5034430;28;19909;-78
2021/10/30 01:55:46;;;;;;;;;;;12.90;99.90;;;;;;5034150;28;19909;-78
2021/10/30 01:58:11;;;;;;;;;;;12.90;99.90;;;;;;5034167;28;19912;-78
2021/10/30 02:00:37;;;;;;;;;;;12.90;99.90;;;;;;5032921;28;19909;-76
2021/10/30 02:03:03;;;;;;;;;;;13.00;99.90;;;;;;5034106;28;19905;-78
2021/10/30 02:05:29;;;;;;;;;;;13.00;99.90;;;;;;5032793;28;20349;-78
2021/10/30 02:07:55;;;;;;;;;;;13.00;99.90;;;;;;5032746;28;19912;-77
2021/10/30 02:10:20;;;;;;;;;;;13.00;99.90;;;;;;5033901;28;19986;-78
2021/10/30 02:12:46;;;;;;;;;;;12.90;99.90;;;;;;5032645;28;20428;-77
2021/10/30 02:15:12;;;;;;;;;;;13.00;99.90;;;;;;5033911;28;20325;-76
2021/10/30 02:17:38;;;;;;;;;;;12.90;99.90;;;;;;5034118;28;19915;-77
2021/10/30 02:20:05;;;;;;;;;;;12.90;99.90;;;;;;5033472;28;20293;-77
2021/10/30 02:22:30;;;;;;;;;;;13.00;99.90;;;;;;5033747;28;20293;-78
2021/10/30 02:24:56;;;;;;;;;;;13.00;99.90;;;;;;5033915;28;19958;-78
2021/10/30 02:27:21;;;;;;;;;;;13.00;99.90;;;;;;5033706;28;19905;-78
2021/10/30 02:29:47;;;;;;;;;;;13.00;99.90;;;;;;5033704;28;19916;-77
2021/10/30 02:32:13;;;;;;;;;;;13.00;99.90;;;;;;5032443;28;19952;-78
2021/10/30 02:34:39;;;;;;;;;;;13.00;99.90;;;;;;5033678;28;19952;-77
2021/10/30 02:37:05;;;;;;;;;;;13.00;99.90;;;;;;5033623;28;19909;-77
2021/10/30 02:39:31;;;;;;;;;;;13.00;99.90;;;;;;5033731;28;19905;-78
2021/10/30 02:41:56;;;;;;;;;;;13.10;99.90;;;;;;5034032;28;19992;-77
2021/10/30 02:44:22;;;;;;;;;;;13.20;99.90;;;;;;5033719;28;20281;-77
2021/10/30 02:46:47;;;;;;;;;;;13.20;99.90;;;;;;5032311;28;19905;-77
2021/10/30 02:49:13;;;;;;;;;;;13.30;99.90;;;;;;5033521;28;20352;-78
2021/10/30 02:51:39;;;;;;;;;;;13.30;99.90;;;;;;5033817;28;19905;-77
2021/10/30 02:54:04;;;;;;;;;;;13.30;99.90;;;;;;5033799;28;20358;-78
2021/10/30 02:56:30;;;;;;;;;;;13.30;99.90;;;;;;5033402;28;19963;-78
2021/10/30 02:58:55;;;;;;;;;;;13.30;99.90;;;;;;5032224;28;19905;-78
2021/10/30 03:01:21;;;;;;;;;;;13.30;99.90;;;;;;5033432;28;19905;-78
2021/10/30 03:03:46;;;;;;;;;;;13.30;99.90;;;;;;5033460;28;20365;-78
2021/10/30 03:06:14;;;;;;;;;;;13.30;99.90;;;;;;5032168;28;20015;-77
2021/10/30 03:08:40;;;;;;;;;;;13.30;99.90;;;;;;5033444;28;19905;-78
2021/10/30 03:11:05;;;;;;;;;;;13.20;99.90;;;;;;5032942;28;19917;-78
2021/10/30 03:13:31;;;;;;;;;;;13.30;99.90;;;;;;5033359;28;19905;-76
2021/10/30 03:15:56;;;;;;;;;;;13.30;99.90;;;;;;5032337;28;19952;-78
2021/10/30 03:18:22;;;;;;;;;;;13.40;99.90;;;;;;5033828;28;19912;-77
2021/10/30 03:20:48;;;;;;;;;;;13.30;99.90;;;;;;5033295;28;19905;-78
2021/10/30 03:23:13;;;;;;;;;;;13.40;99.90;;;;;;5031941;28;20246;-78
2021/10/30 03:25:39;;;;;;;;;;;13.40;99.90;;;;;;5031888;28;19905;-77
2021/10/30 03:28:05;;;;;;;;;;;13.50;99.90;;;;;;5033273;28;19932;-77
2021/10/30 03:30:31;;;;;;;;;;;13.50;99.90;;;;;;5033300;28;19905;-78
2021/10/30 03:32:56;;;;;;;;;;;13.40;99.90;;;;;;5036433;28;19913;-78
2021/10/30 03:35:22;;;;;;;;;;;13.50;99.90;;;;;;5036770;28;19905;-77
2021/10/30 03:37:47;;;;;;;;;;;13.50;99.90;;;;;;5037231;28;19984;-78
2021/10/30 03:40:13;;;;;;;;;;;13.50;99.90;;;;;;5036897;28;19905;-78
2021/10/30 03:42:39;;;;;;;;;;;13.50;99.90;;;;;;5035443;28;19905;-78
2021/10/30 03:45:05;;;;;;;;;;;13.50;99.90;;;;;;5036740;28;19905;-77
2021/10/30 03:47:31;;;;;;;;;;;13.50;99.90;;;;;;5036868;28;19905;-77
2021/10/30 03:49:57;;;;;;;;;;;13.60;99.90;;;;;;5036592;28;19909;-77
2021/10/30 03:52:23;;;;;;;;;;;13.60;99.90;;;;;;5036618;28;20391;-78
2021/10/30 03:54:48;;;;;;;;;;;13.50;99.90;;;;;;5035252;28;19944;-78
2021/10/30 03:57:14;;;;;;;;;;;13.60;99.90;;;;;;5036735;28;19959;-78
2021/10/30 03:59:39;;;;;;;;;;;13.60;99.90;;;;;;5035083;28;19988;-79
2021/10/30 04:02:05;;;;;;;;;;;13.60;99.90;;;;;;5036384;28;19905;-77
2021/10/30 04:04:31;;;;;;;;;;;13.70;99.90;;;;;;5036296;28;19912;-77
2021/10/30 04:06:57;;;;;;;;;;;13.70;99.90;;;;;;5036239;28;19909;-78
2021/10/30 04:09:24;;;;;;;;;;;13.70;99.90;;;;;;5036028;28;20381;-77
2021/10/30 04:11:50;;;;;;;;;;;13.70;99.90;;;;;;5036535;28;19913;-77
2021/10/30 04:14:16;;;;;;;;;;;13.80;99.90;;;;;;5034824;28;19905;-78
2021/10/30 04:16:41;;;;;;;;;;;13.80;99.90;;;;;;5036074;28;19909;-78
2021/10/30 04:19:07;;;;;;;;;;;13.80;99.90;;;;;;5036015;28;20324;-77
2021/10/30 04:21:32;;;;;;;;;;;13.80;99.90;;;;;;5034694;28;19905;-77
2021/10/30 04:23:58;;;;;;;;;;;13.80;99.90;;;;;;5035972;28;20325;-76
2021/10/30 04:26:25;;;;;;;;;;;13.70;99.90;;;;;;5034689;28;19909;-78
2021/10/30 04:28:51;;;;;;;;;;;13.80;99.90;;;;;;5035835;28;19992;-78
2021/10/30 04:31:24;;;;;;;;;;;13.70;99.90;;;;;;5036028;28;19972;-76
2021/10/30 04:33:52;;;;;;;;;;;13.70;99.90;;;;;;5036066;28;19911;-77
2021/10/30 04:36:18;;;;;;;;;;;13.70;99.90;;;;;;5035695;28;19912;-77
2021/10/30 04:38:44;;;;;;;;;;;13.70;99.90;;;;;;5034349;28;19905;-77
2021/10/30 04:41:10;;;;;;;;;;;13.70;99.90;;;;;;5035610;28;19911;-77
2021/10/30 04:43:35;;;;;;;;;;;13.60;99.90;;;;;;5033610;28;19984;-78
2021/10/30 04:46:01;;;;;;;;;;;13.70;99.90;;;;;;5035581;28;19912;-77
2021/10/30 04:48:26;;;;;;;;;;;13.70;99.90;;;;;;5035669;28;19916;-77
2021/10/30 04:50:52;;;;;;;;;;;13.70;99.90;;;;;;5035519;28;20349;-76
2021/10/30 04:53:18;;;;;;;;;;;13.70;99.90;;;;;;5035455;28;20277;-77
2021/10/30 04:55:43;;;;;;;;;;;13.60;99.90;;;;;;5035460;28;19919;-77
2021/10/30 04:58:09;;;;;;;;;;;13.70;99.90;;;;;;5035275;28;19905;-78
2021/10/30 05:00:35;;;;;;;;;;;13.70;99.90;;;;;;5035219;28;19952;-76
2021/10/30 05:03:00;;;;;;;;;;;13.70;99.90;;;;;;5035269;28;19905;-78
2021/10/30 05:05:26;;;;;;;;;;;13.60;99.90;;;;;;5035170;28;19909;-77
2021/10/30 05:07:51;;;;;;;;;;;13.70;99.90;;;;;;5033849;28;19906;-77
2021/10/30 05:10:17;;;;;;;;;;;13.70;99.90;;;;;;5035094;28;20270;-76
2021/10/30 05:12:42;;;;;;;;;;;13.80;99.90;;;;;;5035099;28;19912;-77
2021/10/30 05:15:08;;;;;;;;;;;13.80;99.90;;;;;;5035032;28;19932;-77
2021/10/30 05:17:34;;;;;;;;;;;13.70;99.90;;;;;;5035058;28;20431;-76
2021/10/30 05:19:59;;;;;;;;;;;13.70;99.90;;;;;;5034861;28;19905;-77
2021/10/30 05:22:25;;;;;;;;;;;13.70;99.90;;;;;;5034856;28;19905;-77
2021/10/30 05:24:51;;;;;;;;;;;13.70;99.90;;;;;;5033511;28;19996;-77
2021/10/30 05:27:16;;;;;;;;;;;13.80;99.90;;;;;;5035100;28;19911;-77
2021/10/30 05:29:42;;;;;;;;;;;13.80;99.90;;;;;;5034721;28;19905;-78
2021/10/30 05:32:08;;;;;;;;;;;13.80;99.90;;;;;;5033413;28;19947;-77
2021/10/30 05:34:33;;;;;;;;;;;13.80;99.90;;;;;;5034613;28;20024;-77
2021/10/30 05:36:59;;;;;;;;;;;13.80;99.90;;;;;;5034921;28;19958;-77
2021/10/30 05:39:25;;;;;;;;;;;13.80;99.90;;;;;;5034473;28;19905;-78
2021/10/30 05:41:50;;;;;;;;;;;13.90;99.90;;;;;;5034583;28;19998;-78
2021/10/30 05:44:16;;;;;;;;;;;13.90;99.90;;;;;;5034572;28;20020;-78
2021/10/30 05:46:42;;;;;;;;;;;13.90;99.90;;;;;;5034378;28;19913;-78
2021/10/30 05:49:09;;;;;;;;;;;13.90;99.90;;;;;;5034485;28;19905;-76
2021/10/30 05:51:35;;;;;;;;;;;13.80;99.90;;;;;;5034639;28;19909;-78
2021/10/30 05:54:01;;;;;;;;;;;13.80;99.90;;;;;;5032955;28;20401;-76
2021/10/30 05:56:26;;;;;;;;;;;13.70;99.90;;;;;;5034117;28;19913;-77
2021/10/30 05:58:52;;;;;;;;;;;13.50;99.90;;;;;;5034259;28;20325;-77
2021/10/30 06:01:18;;;;;;;;;;;13.50;99.90;;;;;;5034230;28;19905;-77
2021/10/30 06:03:43;;;;;;;;;;;13.50;99.90;;;;;;5034244;28;20004;-76
2021/10/30 06:06:09;;;;;;;;;;;13.50;99.90;;;;;;5033982;28;19905;-76
2021/10/30 06:08:34;;;;;;;;;;;13.50;99.90;;;;;;5032622;28;20259;-77
2021/10/30 06:11:00;;;;;;;;;;;13.50;99.90;;;;;;5033629;28;20298;-77
2021/10/30 06:13:26;;;;;;;;;;;13.50;99.90;;;;;;5033876;28;19909;-77
2021/10/30 06:15:51;;;;;;;;;;;13.50;99.90;;;;;;5033829;28;20318;-77
2021/10/30 06:18:17;;;;;;;;;;;13.50;99.90;;;;;;5033775;28;19916;-77
2021/10/30 06:20:43;;;;;;;;;;;13.40;99.90;;;;;;5033757;28;19904;-76
2021/10/30 06:23:11;;;;;;;;;;;13.40;99.90;;;;;;5033859;28;19916;-77
2021/10/30 06:25:38;;;;;;;;;;;13.40;99.90;;;;;;5033828;28;19991;-76
2021/10/30 06:28:04;;;;;;;;;;;13.30;99.90;;;;;;5033670;28;19948;-77
2021/10/30 06:30:30;;;;;;;;;;;13.20;99.90;;;;;;5033721;28;19948;-77
2021/10/30 06:32:55;;;;;;;;;;;13.20;99.90;;;;;;5033767;28;19905;-76
2021/10/30 06:35:21;;;;;;;;;;;13.20;99.90;;;;;;5033699;28;19966;-77
2021/10/30 06:37:46;;;;;;;;;;;13.20;99.90;;;;;;5033525;28;19940;-76
2021/10/30 06:40:13;;;;;;;;;;;13.20;99.90;;;;;;5033463;28;19944;-77
2021/10/30 06:42:39;;;;;;;;;;;13.10;99.90;;;;;;5033581;28;19905;-77
2021/10/30 06:45:05;;;;;;;;;;;13.10;99.90;;;;;;5032175;28;19912;-77
2021/10/30 06:47:31;;;;;;;;;;;13.00;99.90;;;;;;5033457;28;20000;-77
2021/10/30 06:49:59;;;;;;;;;;;13.00;99.90;;;;;;5033478;28;19992;-77
2021/10/30 06:52:26;;;;;;;;;;;12.90;99.90;;;;;;5033450;28;20273;-76
2021/10/30 06:54:52;;;;;;;;;;;12.90;99.90;;;;;;5033385;28;20369;-77
2021/10/30 06:57:17;;;;;;;;;;;12.90;99.90;;;;;;5033287;28;19916;-76
2021/10/30 06:59:43;;;;;;;;;;;12.80;99.90;;;;;;5033382;28;19988;-77
2021/10/30 07:02:10;;;;;;;;;;;12.80;99.90;;;;;;5033357;28;19905;-76
2021/10/30 07:04:36;;;;;;;;;;;12.80;99.90;;;;;;5033301;28;19996;-77
2021/10/30 07:07:02;;;;;;;;;;;12.70;99.90;;;;;;5034639;28;19932;-77
2021/10/30 07:09:28;;;;;;;;;;;12.70;99.90;;;;;;5037238;28;19999;-76
2021/10/30 07:11:54;;;;;;;;;;;12.70;99.90;;;;;;5037349;28;20288;-76
2021/10/30 07:14:21;;;;;;;;;;;12.80;99.90;;;;;;5037706;28;19905;-77
2021/10/30 07:16:47;;;;;;;;;;;12.80;99.90;;;;;;5035738;28;20408;-76
2021/10/30 07:19:13;;;;;;;;;;;12.80;99.90;;;;;;5037116;28;19949;-77
2021/10/30 07:21:38;;;;;;;;;;;12.80;99.90;;;;;;5037064;28;20407;-77
2021/10/30 07:24:04;;;;;;;;;;;12.80;99.90;;;;;;5035584;28;19905;-76
2021/10/30 07:26:29;;;;;;;;;;;12.80;99.90;;;;;;5036909;28;19967;-77
2021/10/30 07:28:55;;;;;;;;;;;12.70;99.90;;;;;;5036807;28;19905;-76
2021/10/30 07:31:21;;;;;;;;;;;12.70;99.90;;;;;;5036796;28;19955;-77
2021/10/30 07:33:46;;;;;;;;;;;12.60;99.90;;;;;;5037143;28;19987;-77
2021/10/30 07:36:12;;;;;;;;;;;12.60;99.90;;;;;;5036716;28;19913;-76
2021/10/30 07:38:38;;;;;;;;;;;12.60;99.90;;;;;;5036831;28;20327;-77
2021/10/30 07:41:04;;;;;;;;;;;12.50;99.90;;;;;;5036754;28;20368;-75
2021/10/30 07:43:30;;;;;;;;;;;12.50;99.90;;;;;;5036637;28;19905;-77
2021/10/30 07:45:56;;;;;;;;;;;12.50;99.90;;;;;;5036816;28;19927;-77
2021/10/30 07:48:22;;;;;;;;;;;12.60;99.90;;;;;;5036944;28;19905;-76
2021/10/30 07:50:47;;;;;;;;;;;12.50;99.90;;;;;;5036617;28;19932;-76
2021/10/30 07:53:14;;;;;;;;;;;12.50;99.90;;;;;;5036568;28;20365;-76
2021/10/30 07:55:39;;;;;;;;;;;12.60;99.90;;;;;;5013261;28;19918;-76
2021/10/30 07:58:05;;;;;;;;;;;12.60;99.90;;;;;;5036581;28;19966;-77
2021/10/30 08:00:31;;;;;;;;;;;12.60;99.90;;;;;;5036197;28;19909;-76
2021/10/30 08:02:56;;;;;;;;;;;12.60;99.90;;;;;;5036297;28;19912;-77
2021/10/30 08:05:23;;;;;;;;;;;12.60;99.90;;;;;;5035064;28;19905;-77
2021/10/30 08:07:48;;;;;;;;;;;12.60;99.90;;;;;;5016838;28;19909;-76
2021/10/30 08:10:14;;;;;;;;;;;12.60;99.90;;;;;;5016397;28;19944;-76
2021/10/30 08:12:40;;;;;;;;;;;12.50;99.90;;;;;;5015345;28;19905;-76
2021/10/30 08:15:06;;;;;;;;;;;12.70;99.90;;;;;;5016898;28;19997;-76
2021/10/30 08:17:32;;;;;;;;;;;12.80;99.90;;;;;;5020667;28;19960;-76
2021/10/30 08:20:00;;;;;;;;;;;12.90;99.90;;;;;;5035406;28;19916;-76
2021/10/30 08:22:26;;;;;;;;;;;13.10;99.90;;;;;;5036578;28;19912;-76
2021/10/30 08:24:52;;;;;;;;;;;13.20;99.90;;;;;;5036326;28;19905;-77
2021/10/30 08:27:18;;;;;;;;;;;13.20;99.90;;;;;;5019883;28;19916;-76
2021/10/30 08:29:44;;;;;;;;;;;13.00;99.90;;;;;;5016402;28;19948;-76
2021/10/30 08:32:10;;;;;;;;;;;13.10;99.90;;;;;;5016364;28;19905;-76
2021/10/30 08:34:36;;;;;;;;;;;13.10;99.90;;;;;;5016107;28;19906;-76
2021/10/30 08:37:02;;;;;;;;;;;13.00;99.90;;;;;;5029846;28;19909;-76
2021/10/30 08:39:28;;;;;;;;;;;13.10;99.90;;;;;;5036251;28;19955;-76
2021/10/30 08:41:53;;;;;;;;;;;13.20;99.90;;;;;;5036007;28;20324;-77
2021/10/30 08:44:20;;;;;;;;;;;13.30;99.90;;;;;;5034868;28;19905;-76
2021/10/30 08:46:45;;;;;;;;;;;13.40;99.90;;;;;;5024545;28;19905;-76
2021/10/30 08:49:11;;;;;;;;;;;13.50;99.90;;;;;;5015826;28;19956;-77
2021/10/30 08:51:40;;;;;;;;;;;13.60;99.90;;;;;;5016549;28;19915;-76
2021/10/30 08:54:06;;;;;;;;;;;13.70;99.90;;;;;;5014910;28;20258;-77
2021/10/30 08:56:32;;;;;;;;;;;13.90;99.90;;;;;;5015676;28;19909;-76
2021/10/30 08:58:57;;;;;;;;;;;13.90;99.90;;;;;;5007304;28;19917;-75
2021/10/30 09:01:23;;;;;;;;;;;14.00;99.90;;;;;;5015963;28;19906;-76
2021/10/30 09:03:57;;;;;;;;;;;14.00;99.90;;;;;;5016249;28;19905;-77
2021/10/30 09:06:36;;;;;;;;;;;14.00;99.90;;;;;;5023300;28;19905;-77
2021/10/30 09:09:10;;;;;;;;;;;14.50;99.90;;;;;;5035445;28;19905;-76
2021/10/30 09:11:36;;;;;;;;;;;14.80;99.90;;;;;;5035819;28;19947;-76
2021/10/30 09:14:02;;;;;;;;;;;15.00;99.90;;;;;;5035370;28;19912;-76
2021/10/30 09:16:28;;;;;;;;;;;15.60;99.90;;;;;;5035359;28;19928;-77
2021/10/30 09:18:53;;;;;;;;;;;16.40;99.90;;;;;;5035644;28;19905;-78
2021/10/30 09:21:19;;;;;;;;;;;16.90;99.90;;;;;;5035812;28;20361;-77
2021/10/30 09:23:46;;;;;;;;;;;17.40;99.90;;;;;;5035917;28;19912;-77
2021/10/30 09:26:16;;;;;;;;;;;17.90;99.90;;;;;;5035463;28;20369;-77
2021/10/30 09:28:49;;;;;;;;;;;18.00;99.90;;;;;;5035812;28;19928;-78
2021/10/30 09:31:15;;;;;;;;;;;17.70;99.90;;;;;;5035686;28;19943;-76
2021/10/30 09:33:59;;;;;;;;;;;18.00;99.90;;;;;;5035883;28;19905;-77
2021/10/30 09:36:29;;;;;;;;;;;17.30;99.90;;;;;;5035464;28;19909;-77
2021/10/30 09:38:56;;;;;;;;;;;17.10;99.90;;;;;;5035730;28;19905;-78
2021/10/30 09:41:33;;;;;;;;;;;17.30;99.90;;;;;;5035262;28;20277;-78
2021/10/30 09:44:08;;;;;;;;;;;17.30;99.90;;;;;;5035092;28;19905;-77
2021/10/30 09:46:35;;;;;;;;;;;16.90;99.90;;;;;;5035399;28;19912;-77
2021/10/30 09:49:18;;;;;;;;;;;17.70;99.90;;;;;;5034983;28;19905;-78
2021/10/30 09:51:51;;;;;;;;;;;17.30;99.90;;;;;;5034082;28;19905;-78
2021/10/30 09:54:30;;;;;;;;;;;18.20;98.40;;;;;;5035253;28;20389;-77
2021/10/30 09:56:55;;;;;;;;;;;19.90;94.10;;;;;;5034186;28;19913;-77
2021/10/30 09:59:21;;;;;;;;;;;21.00;92.50;;;;;;5034469;28;20375;-78
2021/10/30 10:01:48;;;;;;;;;;;20.90;88.90;;;;;;5025630;28;19982;-78
2021/10/30 10:04:14;;;;;;;;;;;21.10;90.10;;;;;;5034513;28;19912;-77
2021/10/30 10:06:41;;;;;;;;;;;21.50;85.40;;;;;;5033861;28;19920;-78
2021/10/30 10:09:07;;;;;;;;;;;22.00;84.40;;;;;;5033477;28;19912;-79
2021/10/30 10:11:33;;;;;;;;;;;23.90;79.20;;;;;;5032726;28;19909;-78
2021/10/30 10:13:59;;;;;;;;;;;24.80;76.40;;;;;;5034134;28;19912;-80
2021/10/30 10:16:26;;;;;;;;;;;24.10;73.10;;;;;;5029376;28;20004;-79
2021/10/30 10:18:53;;;;;;;;;;;25.00;72.30;;;;;;5014796;28;20004;-78
2021/10/30 10:21:21;;;;;;;;;;;25.00;67.00;;;;;;5012936;28;19906;-79
2021/10/30 10:23:47;;;;;;;;;;;24.30;69.60;;;;;;5014345;28;19932;-78
2021/10/30 10:26:14;;;;;;;;;;;23.80;69.00;;;;;;5016192;28;19905;-79
2021/10/30 10:28:40;;;;;;;;;;;24.00;69.20;;;;;;5033535;28;19959;-78
2021/10/30 10:31:22;;;;;;;;;;;24.90;68.80;;;;;;5033951;28;19905;-79
2021/10/30 10:34:06;;;;;;;;;;;24.80;66.40;;;;;;5033739;28;19916;-79
2021/10/30 10:36:33;;;;;;;;;;;24.40;66.60;;;;;;5033632;28;19909;-79
2021/10/30 10:38:58;;;;;;;;;;;24.70;66.00;;;;;;5033573;28;20354;-78
2021/10/30 10:41:37;;;;;;;;;;;22.90;69.10;;;;;;5032485;28;19912;-78
2021/10/30 10:44:06;;;;;;;;;;;21.80;71.40;;;;;;5033628;28;19942;-77
2021/10/30 10:46:32;;;;;;;;;;;20.90;76.10;;;;;;5033669;28;20004;-79
2021/10/30 10:49:27;;;;;;;;;;;20.30;77.90;;;;;;5033589;28;20297;-77
2021/10/30 10:52:08;;;;;;;;;;;19.70;80.00;;;;;;5030354;28;19905;-78
2021/10/30 10:54:52;;;;;;;;;;;23.80;73.10;;;;;;5033646;28;19905;-79
2021/10/30 10:57:21;;;;;;;;;;;25.70;65.90;;;;;;5033622;28;20411;-78
2021/10/30 10:59:56;;;;;;;;;;;26.80;65.20;;;;;;5033486;28;20381;-79
2021/10/30 11:02:27;;;;;;;;;;;26.80;60.20;;;;;;5033483;28;19911;-77
2021/10/30 11:05:07;;;;;;;;;;;26.90;62.00;;;;;;5031970;28;19951;-79
2021/10/30 11:07:34;;;;;;;;;;;27.00;62.10;;;;;;5033434;28;20273;-78
2021/10/30 11:10:03;;;;;;;;;;;26.90;60.80;;;;;;5033167;28;19917;-78
2021/10/30 11:12:29;;;;;;;;;;;26.90;60.90;;;;;;5033339;28;20425;-78
2021/10/30 11:15:05;;;;;;;;;;;26.40;60.90;;;;;;5033352;28;19996;-78
2021/10/30 11:17:34;;;;;;;;;;;26.40;59.60;;;;;;5033605;28;20277;-78
2021/10/30 11:20:08;;;;;;;;;;;26.50;60.20;;;;;;5033323;28;19944;-79
2021/10/30 11:22:34;;;;;;;;;;;28.10;59.30;;;;;;5033326;28;19905;-78
2021/10/30 11:25:01;;;;;;;;;;;26.20;58.00;;;;;;5033695;28;19905;-78
2021/10/30 11:27:27;;;;;;;;;;;26.10;58.90;;;;;;5033393;28;19908;-78
2021/10/30 11:29:53;;;;;;;;;;;25.70;59.30;;;;;;5033462;28;20396;-77
2021/10/30 11:32:19;;;;;;;;;;;26.70;60.00;;;;;;5033272;28;20270;-79
2021/10/30 11:34:56;;;;;;;;;;;26.30;57.40;;;;;;5033142;28;19912;-79
2021/10/30 11:37:22;;;;;;;;;;;25.80;59.70;;;;;;5031790;28;19927;-78
2021/10/30 11:39:49;;;;;;;;;;;26.10;59.40;;;;;;5033389;28;20011;-78
2021/10/30 11:42:15;;;;;;;;;;;25.80;58.10;;;;;;5033208;28;19905;-77
2021/10/30 11:44:51;;;;;;;;;;;26.70;57.20;;;;;;5033095;28;19951;-79
2021/10/30 11:47:20;;;;;;;;;;;26.60;56.70;;;;;;5031763;28;19905;-78
2021/10/30 11:49:46;;;;;;;;;;;27.90;56.10;;;;;;5033043;28;19905;-79
2021/10/30 11:52:12;;;;;;;;;;;27.70;55.70;;;;;;5033138;28;19913;-77
2021/10/30 11:54:38;;;;;;;;;;;27.30;56.10;;;;;;5036510;28;19912;-79
2021/10/30 11:57:04;;;;;;;;;;;27.70;56.60;;;;;;5036483;28;19956;-78
2021/10/30 11:59:30;;;;;;;;;;;26.80;55.40;;;;;;5051834;28;20324;-79
2021/10/30 12:01:56;;;;;;;;;;;26.80;55.10;;;;;;5036481;28;19905;-78
2021/10/30 12:04:26;;;;;;;;;;;27.60;56.00;;;;;;5036372;28;19932;-79
2021/10/30 12:06:53;;;;;;;;;;;26.10;54.80;;;;;;5035047;28;19905;-78
2021/10/30 12:09:28;;;;;;;;;;;24.40;57.70;;;;;;5036105;28;20328;-77
2021/10/30 12:11:56;;;;;;;;;;;23.70;60.90;;;;;;5036548;28;20013;-77
2021/10/30 12:14:41;;;;;;;;;;;25.50;58.30;;;;;;5036414;28;19913;-79
2021/10/30 12:17:10;;;;;;;;;;;25.80;56.20;;;;;;5036091;28;19959;-77
2021/10/30 12:19:36;;;;;;;;;;;27.10;55.60;;;;;;5036092;28;20357;-79
2021/10/30 12:22:03;;;;;;;;;;;30.00;53.70;;;;;;5036082;28;20370;-79
2021/10/30 12:24:29;;;;;;;;;;;30.00;49.00;;;;;;5036159;28;19905;-78
2021/10/30 12:26:57;;;;;;;;;;;28.30;50.30;;;;;;5034741;28;19912;-78
2021/10/30 12:29:24;;;;;;;;;;;27.90;52.60;;;;;;5035984;28;20254;-78
2021/10/30 12:32:04;;;;;;;;;;;25.30;54.40;;;;;;5051274;28;19928;-78
2021/10/30 12:34:31;;;;;;;;;;;23.90;59.40;;;;;;5035992;28;19995;-78
2021/10/30 12:36:57;;;;;;;;;;;24.00;59.50;;;;;;5034643;28;19932;-77
2021/10/30 12:39:23;;;;;;;;;;;23.80;58.40;;;;;;5035742;28;19940;-78
2021/10/30 12:41:53;;;;;;;;;;;23.80;59.10;;;;;;5035918;28;19912;-78
2021/10/30 12:44:25;;;;;;;;;;;23.50;60.30;;;;;;5035683;28;20438;-79
2021/10/30 12:46:52;;;;;;;;;;;24.50;59.00;;;;;;5034286;28;19905;-78
2021/10/30 12:49:22;;;;;;;;;;;23.90;58.50;;;;;;5035746;28;19909;-77
2021/10/30 12:51:55;;;;;;;;;;;25.50;58.10;;;;;;5035533;28;19916;-79
2021/10/30 12:54:25;;;;;;;;;;;25.90;57.00;;;;;;5035463;28;19911;-78
2021/10/30 12:56:50;;;;;;;;;;;26.50;56.20;;;;;;5035383;28;19909;-79
2021/10/30 12:59:19;;;;;;;;;;;27.20;55.10;;;;;;5035526;28;20266;-78
2021/10/30 13:01:50;;;;;;;;;;;28.00;50.60;;;;;;5035369;28;19905;-79
2021/10/30 13:04:15;;;;;;;;;;;27.10;50.90;;;;;;5049983;28;19905;-78
2021/10/30 13:06:45;;;;;;;;;;;26.70;52.10;;;;;;5035239;28;19912;-78
2021/10/30 13:09:16;;;;;;;;;;;26.60;53.00;;;;;;5034733;28;19909;-77
2021/10/30 13:11:42;;;;;;;;;;;26.00;53.20;;;;;;5035300;28;19992;-77
2021/10/30 13:14:08;;;;;;;;;;;26.00;52.50;;;;;;5033802;28;19955;-78
2021/10/30 13:16:34;;;;;;;;;;;26.40;52.40;;;;;;5050301;28;19909;-77
2021/10/30 13:19:01;;;;;;;;;;;26.20;55.30;;;;;;5050525;28;20296;-79
2021/10/30 13:21:27;;;;;;;;;;;27.10;52.40;;;;;;5035180;28;19995;-79
2021/10/30 13:23:54;;;;;;;;;;;27.00;52.70;;;;;;5033613;28;19955;-77
2021/10/30 13:26:21;;;;;;;;;;;27.70;50.40;;;;;;5035145;28;19905;-78
2021/10/30 13:28:47;;;;;;;;;;;28.40;51.10;;;;;;5033515;28;19908;-79
2021/10/30 13:31:13;;;;;;;;;;;27.90;50.70;;;;;;5034762;28;20328;-79
2021/10/30 13:33:38;;;;;;;;;;;26.50;52.80;;;;;;5033454;28;19909;-79
2021/10/30 13:36:04;;;;;;;;;;;27.00;53.90;;;;;;5033315;28;19987;-77
2021/10/30 13:38:30;;;;;;;;;;;27.80;52.50;;;;;;5034684;28;19909;-78
2021/10/30 13:40:56;;;;;;;;;;;28.90;52.40;;;;;;5034666;28;20003;-76
2021/10/30 13:43:21;;;;;;;;;;;27.30;50.90;;;;;;5034511;28;19912;-78
2021/10/30 13:45:47;;;;;;;;;;;25.40;53.20;;;;;;5049826;28;20316;-78
2021/10/30 13:48:13;;;;;;;;;;;24.50;55.40;;;;;;5033155;28;19956;-77
2021/10/30 13:50:39;;;;;;;;;;;23.40;57.00;;;;;;5034401;28;19909;-77
2021/10/30 13:53:04;;;;;;;;;;;22.40;59.50;;;;;;5034448;28;19909;-79
2021/10/30 13:55:30;;;;;;;;;;;24.60;57.00;;;;;;5049616;28;20018;-78
2021/10/30 13:57:55;;;;;;;;;;;26.50;54.10;;;;;;5034632;28;19910;-79
2021/10/30 14:00:21;;;;;;;;;;;26.70;53.60;;;;;;5034501;28;19948;-77
2021/10/30 14:02:47;;;;;;;;;;;26.00;52.90;;;;;;5034220;28;19911;-79
2021/10/30 14:05:12;;;;;;;;;;;25.40;54.30;;;;;;5034179;28;19984;-78
2021/10/30 14:07:38;;;;;;;;;;;25.80;54.70;;;;;;5034109;28;19955;-77
2021/10/30 14:10:04;;;;;;;;;;;25.40;54.40;;;;;;5033899;28;19916;-78
2021/10/30 14:12:30;;;;;;;;;;;24.80;54.40;;;;;;5034069;28;20437;-78
2021/10/30 14:14:55;;;;;;;;;;;24.60;55.20;;;;;;5034023;28;19911;-78